sensor_id;sensor_type;location;lat;lon;timestamp;pressure;altitude;pressure_sealevel;temperature;humidity
7052;BME280;3567;52.444;13.556;2023-01-27T00:01:56;101793.34;;;-0.28;100.00
7052;BME280;3567;52.444;13.556;2023-01-27T00:04:22;101792.38;;;-0.27;100.00
7052;BME280;3567;52.444;13.556;2023-01-27T00:06:47;101786.28;;;-0.28;100.00
7052;BME280;3567;52.444;13.556;2023-01-27T00:09:14;101793.22;;;-0.27;100.00
7052;BME280;3567;52.444;13.556;2023-01-27T00:11:40;101784.22;;;-0.24;100.00
7052;BME280;3567;52.444;13.556;2023-01-27T00:14:24;101784.06;;;-0.22;100.00
7052;BME280;3567;52.444;13.556;2023-01-27T00:16:49;101782.28;;;-0.22;100.00
7052;BME280;3567;52.444;13.556;2023-01-27T00:19:15;101776.91;;;-0.20;100.00
7052;BME280;3567;52.444;13.556;2023-01-27T00:21:45;101780.47;;;-0.21;100.00
7052;BME280;3567;52.444;13.556;2023-01-27T00:24:29;101783.97;;;-0.21;100.00
7052;BME280;3567;52.444;13.556;2023-01-27T00:27:01;101779.63;;;-0.22;100.00
7052;BME280;3567;52.444;13.556;2023-01-27T00:29:26;101776.06;;;-0.21;100.00
7052;BME280;3567;52.444;13.556;2023-01-27T00:31:52;101772.47;;;-0.20;100.00
7052;BME280;3567;52.444;13.556;2023-01-27T00:34:35;101780.34;;;-0.20;100.00
7052;BME280;3567;52.444;13.556;2023-01-27T00:37:03;101781.03;;;-0.18;100.00
7052;BME280;3567;52.444;13.556;2023-01-27T00:39:29;101776.63;;;-0.17;100.00
7052;BME280;3567;52.444;13.556;2023-01-27T00:41:54;101779.38;;;-0.19;100.00
7052;BME280;3567;52.444;13.556;2023-01-27T00:44:19;101778.41;;;-0.18;100.00
7052;BME280;3567;52.444;13.556;2023-01-27T00:46:45;101787.16;;;-0.17;100.00
7052;BME280;3567;52.444;13.556;2023-01-27T00:49:10;101787.28;;;-0.19;100.00
7052;BME280;3567;52.444;13.556;2023-01-27T00:51:37;101788.81;;;-0.16;100.00
7052;BME280;3567;52.444;13.556;2023-01-27T00:54:03;101781.78;;;-0.16;100.00
7052;BME280;3567;52.444;13.556;2023-01-27T00:56:29;101787.16;;;-0.17;100.00
7052;BME280;3567;52.444;13.556;2023-01-27T00:58:55;101787.16;;;-0.17;100.00
7052;BME280;3567;52.444;13.556;2023-01-27T01:01:20;101792.56;;;-0.19;100.00
7052;BME280;3567;52.444;13.556;2023-01-27T01:03:46;101794.22;;;-0.18;100.00
7052;BME280;3567;52.444;13.556;2023-01-27T01:06:13;101798.78;;;-0.20;100.00
7052;BME280;3567;52.444;13.556;2023-01-27T01:08:40;101794.34;;;-0.19;100.00
7052;BME280;3567;52.444;13.556;2023-01-27T01:11:08;101805.72;;;-0.19;100.00
7052;BME280;3567;52.444;13.556;2023-01-27T01:13:34;101811.00;;;-0.19;100.00
7052;BME280;3567;52.444;13.556;2023-01-27T01:16:07;101799.63;;;-0.19;100.00
7052;BME280;3567;52.444;13.556;2023-01-27T01:18:33;101805.13;;;-0.22;100.00
7052;BME280;3567;52.444;13.556;2023-01-27T01:20:58;101801.69;;;-0.23;100.00
7052;BME280;3567;52.444;13.556;2023-01-27T01:23:24;101808.06;;;-0.25;100.00
7052;BME280;3567;52.444;13.556;2023-01-27T01:25:53;101807.09;;;-0.24;100.00
7052;BME280;3567;52.444;13.556;2023-01-27T01:28:18;101805.28;;;-0.24;100.00
7052;BME280;3567;52.444;13.556;2023-01-27T01:30:44;101805.28;;;-0.24;100.00
7052;BME280;3567;52.444;13.556;2023-01-27T01:33:09;101812.22;;;-0.23;100.00
7052;BME280;3567;52.444;13.556;2023-01-27T01:35:36;101805.13;;;-0.22;100.00
7052;BME280;3567;52.444;13.556;2023-01-27T01:38:02;101819.13;;;-0.22;100.00
7052;BME280;3567;52.444;13.556;2023-01-27T01:40:27;101818.31;;;-0.22;100.00
7052;BME280;3567;52.444;13.556;2023-01-27T01:43:01;101807.66;;;-0.21;100.00
7052;BME280;3567;52.444;13.556;2023-01-27T01:45:42;101818.88;;;-0.19;100.00
7052;BME280;3567;52.444;13.556;2023-01-27T01:48:26;101816.41;;;-0.20;100.00
7052;BME280;3567;52.444;13.556;2023-01-27T01:50:57;101808.59;;;-0.22;100.00
7052;BME280;3567;52.444;13.556;2023-01-27T01:53:29;101820.09;;;-0.23;100.00
7052;BME280;3567;52.444;13.556;2023-01-27T01:56:01;101825.38;;;-0.23;100.00
7052;BME280;3567;52.444;13.556;2023-01-27T01:58:30;101825.66;;;-0.26;100.00
7052;BME280;3567;52.444;13.556;2023-01-27T02:00:56;101823.97;;;-0.27;100.00
7052;BME280;3567;52.444;13.556;2023-01-27T02:03:24;101824.94;;;-0.28;100.00
7052;BME280;3567;52.444;13.556;2023-01-27T02:05:51;101826.59;;;-0.27;100.00
7052;BME280;3567;52.444;13.556;2023-01-27T02:10:46;101825.66;;;-0.26;100.00
7052;BME280;3567;52.444;13.556;2023-01-27T02:13:13;101820.38;;;-0.26;100.00
7052;BME280;3567;52.444;13.556;2023-01-27T02:15:38;101822.06;;;-0.25;100.00
7052;BME280;3567;52.444;13.556;2023-01-27T02:18:05;101812.50;;;-0.26;100.00
7052;BME280;3567;52.444;13.556;2023-01-27T02:20:40;101816.78;;;-0.25;100.00
7052;BME280;3567;52.444;13.556;2023-01-27T02:28:38;101815.66;;;-0.22;100.00
7052;BME280;3567;52.444;13.556;2023-01-27T02:31:03;101808.50;;;-0.20;100.00
7052;BME280;3567;52.444;13.556;2023-01-27T02:33:28;101812.78;;;-0.19;100.00
7052;BME280;3567;52.444;13.556;2023-01-27T02:36:07;101813.47;;;-0.17;100.00
7052;BME280;3567;52.444;13.556;2023-01-27T02:38:41;101816.00;;;-0.16;100.00
7052;BME280;3567;52.444;13.556;2023-01-27T02:43:39;101814.31;;;-0.17;100.00
7052;BME280;3567;52.444;13.556;2023-01-27T02:46:04;101818.50;;;-0.14;100.00
7052;BME280;3567;52.444;13.556;2023-01-27T02:48:30;101813.22;;;-0.14;100.00
7052;BME280;3567;52.444;13.556;2023-01-27T02:50:55;101823.75;;;-0.14;100.00
7052;BME280;3567;52.444;13.556;2023-01-27T02:53:20;101825.44;;;-0.13;100.00
7052;BME280;3567;52.444;13.556;2023-01-27T02:55:46;101829.72;;;-0.12;100.00
7052;BME280;3567;52.444;13.556;2023-01-27T02:58:11;101834.84;;;-0.11;100.00
7052;BME280;3567;52.444;13.556;2023-01-27T03:00:39;101836.78;;;-0.13;100.00
7052;BME280;3567;52.444;13.556;2023-01-27T03:03:05;101835.97;;;-0.13;100.00
7052;BME280;3567;52.444;13.556;2023-01-27T03:05:30;101835.81;;;-0.12;100.00
7052;BME280;3567;52.444;13.556;2023-01-27T03:07:55;101844.31;;;-0.08;100.00
7052;BME280;3567;52.444;13.556;2023-01-27T03:10:21;101834.59;;;-0.08;100.00
7052;BME280;3567;52.444;13.556;2023-01-27T03:12:46;101838.88;;;-0.07;100.00
7052;BME280;3567;52.444;13.556;2023-01-27T03:15:11;101830.16;;;-0.07;100.00
7052;BME280;3567;52.444;13.556;2023-01-27T03:18:03;101838.88;;;-0.07;100.00
7052;BME280;3567;52.444;13.556;2023-01-27T03:20:47;101838.63;;;-0.04;100.00
7052;BME280;3567;52.444;13.556;2023-01-27T03:23:15;101831.56;;;-0.03;100.00
7052;BME280;3567;52.444;13.556;2023-01-27T03:25:43;101826.31;;;-0.03;100.00
7052;BME280;3567;52.444;13.556;2023-01-27T03:28:09;101828.78;;;-0.02;100.00
7052;BME280;3567;52.444;13.556;2023-01-27T03:30:34;101840.16;;;-0.01;100.00
7052;BME280;3567;52.444;13.556;2023-01-27T03:33:00;101841.00;;;-0.01;100.00
7052;BME280;3567;52.444;13.556;2023-01-27T03:35:27;101837.41;;;0.01;100.00
7052;BME280;3567;52.444;13.556;2023-01-27T03:38:01;101840.75;;;0.03;100.00
7052;BME280;3567;52.444;13.556;2023-01-27T03:40:45;101840.88;;;0.01;100.00
7052;BME280;3567;52.444;13.556;2023-01-27T03:43:29;101834.63;;;0.02;100.00
7052;BME280;3567;52.444;13.556;2023-01-27T03:46:13;101831.19;;;0.02;100.00
7052;BME280;3567;52.444;13.556;2023-01-27T03:48:43;101832.16;;;0.01;100.00
7052;BME280;3567;52.444;13.556;2023-01-27T03:51:09;101834.88;;;-0.01;100.00
7052;BME280;3567;52.444;13.556;2023-01-27T03:53:36;101837.66;;;-0.03;100.00
7052;BME280;3567;52.444;13.556;2023-01-27T03:56:02;101837.53;;;-0.01;100.00
7052;BME280;3567;52.444;13.556;2023-01-27T03:58:34;101830.47;;;-0.01;100.00
7052;BME280;3567;52.444;13.556;2023-01-27T04:01:12;101837.41;;;0.01;100.00
7052;BME280;3567;52.444;13.556;2023-01-27T04:03:37;101841.00;;;-0.01;100.00
7052;BME280;3567;52.444;13.556;2023-01-27T04:06:24;101836.59;;;0.00;100.00
7052;BME280;3567;52.444;13.556;2023-01-27T04:09:09;101837.13;;;0.04;100.00
7052;BME280;3567;52.444;13.556;2023-01-27T04:11:35;101841.31;;;0.06;100.00
7052;BME280;3567;52.444;13.556;2023-01-27T04:14:19;101841.31;;;0.06;100.00
7052;BME280;3567;52.444;13.556;2023-01-27T04:16:45;101836.88;;;0.07;100.00
7052;BME280;3567;52.444;13.556;2023-01-27T04:19:13;101836.88;;;0.07;100.00
7052;BME280;3567;52.444;13.556;2023-01-27T04:21:39;101843.81;;;0.08;100.00
7052;BME280;3567;52.444;13.556;2023-01-27T04:24:05;101842.16;;;0.07;100.00
7052;BME280;3567;52.444;13.556;2023-01-27T04:26:43;101844.38;;;0.11;100.00
7052;BME280;3567;52.444;13.556;2023-01-27T04:29:11;101838.28;;;0.11;100.00
7052;BME280;3567;52.444;13.556;2023-01-27T04:31:36;101843.56;;;0.11;100.00
7052;BME280;3567;52.444;13.556;2023-01-27T04:34:02;101850.50;;;0.12;100.00
7052;BME280;3567;52.444;13.556;2023-01-27T04:36:27;101854.09;;;0.11;100.00
7052;BME280;3567;52.444;13.556;2023-01-27T04:38:52;101850.50;;;0.12;100.00
7052;BME280;3567;52.444;13.556;2023-01-27T04:41:18;101848.53;;;0.14;100.00
7052;BME280;3567;52.444;13.556;2023-01-27T04:43:43;101846.59;;;0.16;100.00
7052;BME280;3567;52.444;13.556;2023-01-27T04:46:08;101852.44;;;0.19;100.00
7052;BME280;3567;52.444;13.556;2023-01-27T04:48:34;101852.06;;;0.24;100.00
7052;BME280;3567;52.444;13.556;2023-01-27T04:50:59;101853.56;;;0.26;100.00
7052;BME280;3567;52.444;13.556;2023-01-27T04:53:25;101860.53;;;0.28;100.00
7052;BME280;3567;52.444;13.556;2023-01-27T04:55:50;101856.09;;;0.28;100.00
7052;BME280;3567;52.444;13.556;2023-01-27T04:58:16;101852.47;;;0.29;100.00
7052;BME280;3567;52.444;13.556;2023-01-27T05:00:45;101858.59;;;0.30;100.00
7052;BME280;3567;52.444;13.556;2023-01-27T05:03:10;101862.78;;;0.32;100.00
7052;BME280;3567;52.444;13.556;2023-01-27T05:05:37;101867.19;;;0.32;100.00
7052;BME280;3567;52.444;13.556;2023-01-27T05:08:06;101868.03;;;0.32;100.00
7052;BME280;3567;52.444;13.556;2023-01-27T05:10:32;101866.34;;;0.31;100.00
7052;BME280;3567;52.444;13.556;2023-01-27T05:12:58;101867.75;;;0.35;100.00
7052;BME280;3567;52.444;13.556;2023-01-27T05:15:24;101867.06;;;0.33;100.00
7052;BME280;3567;52.444;13.556;2023-01-27T05:17:51;101868.72;;;0.34;100.00
7052;BME280;3567;52.444;13.556;2023-01-27T05:20:16;101876.78;;;0.33;100.00
7052;BME280;3567;52.444;13.556;2023-01-27T05:22:42;101877.88;;;0.30;100.00
7052;BME280;3567;52.444;13.556;2023-01-27T05:25:08;101874.66;;;0.26;100.00
7052;BME280;3567;52.444;13.556;2023-01-27T05:27:33;101876.19;;;0.29;100.00
7052;BME280;3567;52.444;13.556;2023-01-27T05:29:59;101879.91;;;0.26;100.00
7052;BME280;3567;52.444;13.556;2023-01-27T05:32:24;101881.72;;;0.26;100.00
7052;BME280;3567;52.444;13.556;2023-01-27T05:34:49;101882.56;;;0.26;100.00
7052;BME280;3567;52.444;13.556;2023-01-27T05:37:15;101879.91;;;0.26;100.00
7052;BME280;3567;52.444;13.556;2023-01-27T05:39:40;101890.47;;;0.26;100.00
7052;BME280;3567;52.444;13.556;2023-01-27T05:42:05;101882.44;;;0.28;100.00
7052;BME280;3567;52.444;13.556;2023-01-27T05:44:31;101898.25;;;0.28;100.00
7052;BME280;3567;52.444;13.556;2023-01-27T05:46:57;101881.03;;;0.24;100.00
7052;BME280;3567;52.444;13.556;2023-01-27T05:49:22;101891.56;;;0.24;100.00
7052;BME280;3567;52.444;13.556;2023-01-27T05:51:47;101896.84;;;0.24;100.00
7052;BME280;3567;52.444;13.556;2023-01-27T05:54:13;101891.56;;;0.24;100.00
7052;BME280;3567;52.444;13.556;2023-01-27T05:56:38;101902.81;;;0.26;100.00
7052;BME280;3567;52.444;13.556;2023-01-27T05:59:05;101897.44;;;0.28;100.00
7052;BME280;3567;52.444;13.556;2023-01-27T06:01:32;101889.38;;;0.29;100.00
7052;BME280;3567;52.444;13.556;2023-01-27T06:03:57;101891.75;;;0.32;100.00
7052;BME280;3567;52.444;13.556;2023-01-27T06:06:25;101894.25;;;0.34;100.00
7052;BME280;3567;52.444;13.556;2023-01-27T06:08:50;101892.44;;;0.34;100.00
7052;BME280;3567;52.444;13.556;2023-01-27T06:11:17;101893.84;;;0.38;100.00
7052;BME280;3567;52.444;13.556;2023-01-27T06:13:47;101889.53;;;0.37;100.00
7052;BME280;3567;52.444;13.556;2023-01-27T06:16:14;101901.75;;;0.38;100.00
7052;BME280;3567;52.444;13.556;2023-01-27T06:18:42;101904.41;;;0.38;100.00
7052;BME280;3567;52.444;13.556;2023-01-27T06:21:09;101900.78;;;0.39;100.00
7052;BME280;3567;52.444;13.556;2023-01-27T06:23:35;101902.44;;;0.40;100.00
7052;BME280;3567;52.444;13.556;2023-01-27T06:26:03;101899.69;;;0.42;100.00
7052;BME280;3567;52.444;13.556;2023-01-27T06:28:29;101906.66;;;0.43;100.00
7052;BME280;3567;52.444;13.556;2023-01-27T06:30:55;101903.03;;;0.44;100.00
7052;BME280;3567;52.444;13.556;2023-01-27T06:33:21;101901.91;;;0.46;100.00
7052;BME280;3567;52.444;13.556;2023-01-27T06:35:47;101899.41;;;0.45;100.00
7052;BME280;3567;52.444;13.556;2023-01-27T06:38:12;101900.25;;;0.45;100.00
7052;BME280;3567;52.444;13.556;2023-01-27T06:40:39;101899.28;;;0.46;100.00
7052;BME280;3567;52.444;13.556;2023-01-27T06:43:10;101895.97;;;0.44;100.00
7052;BME280;3567;52.444;13.556;2023-01-27T06:45:36;101892.34;;;0.45;100.00
7052;BME280;3567;52.444;13.556;2023-01-27T06:48:02;101902.06;;;0.45;100.00
7052;BME280;3567;52.444;13.556;2023-01-27T06:50:28;101910.22;;;0.42;100.00
7052;BME280;3567;52.444;13.556;2023-01-27T06:53:02;101904.94;;;0.42;100.00
7052;BME280;3567;52.444;13.556;2023-01-27T06:55:28;101921.59;;;0.42;100.00
7052;BME280;3567;52.444;13.556;2023-01-27T06:57:54;101923.28;;;0.43;100.00
7052;BME280;3567;52.444;13.556;2023-01-27T07:00:20;101916.31;;;0.42;100.00
7052;BME280;3567;52.444;13.556;2023-01-27T07:02:45;101922.31;;;0.44;100.00
7052;BME280;3567;52.444;13.556;2023-01-27T07:05:11;101922.31;;;0.44;100.00
7052;BME280;3567;52.444;13.556;2023-01-27T07:07:36;101927.44;;;0.46;100.00
7052;BME280;3567;52.444;13.556;2023-01-27T07:10:02;101929.09;;;0.47;100.00
7052;BME280;3567;52.444;13.556;2023-01-27T07:12:28;101922.75;;;0.49;100.00
7052;BME280;3567;52.444;13.556;2023-01-27T07:14:53;101919.97;;;0.51;100.00
7052;BME280;3567;52.444;13.556;2023-01-27T07:17:18;101925.00;;;0.54;100.00
7052;BME280;3567;52.444;13.556;2023-01-27T07:19:44;101935.41;;;0.56;100.00
7052;BME280;3567;52.444;13.556;2023-01-27T07:22:09;101931.78;;;0.57;100.00
7052;BME280;3567;52.444;13.556;2023-01-27T07:24:34;101929.16;;;0.57;100.00
7052;BME280;3567;52.444;13.556;2023-01-27T07:27:00;101936.09;;;0.58;100.00
7052;BME280;3567;52.444;13.556;2023-01-27T07:29:26;101935.13;;;0.59;100.00
7052;BME280;3567;52.444;13.556;2023-01-27T07:31:51;101943.06;;;0.59;100.00
7052;BME280;3567;52.444;13.556;2023-01-27T07:34:16;101930.56;;;0.61;100.00
7052;BME280;3567;52.444;13.556;2023-01-27T07:36:42;101946.09;;;0.64;100.00
7052;BME280;3567;52.444;13.556;2023-01-27T07:39:07;101947.63;;;0.66;100.00
7052;BME280;3567;52.444;13.556;2023-01-27T07:41:33;101937.78;;;0.68;100.00
7052;BME280;3567;52.444;13.556;2023-01-27T07:43:58;101946.41;;;0.70;100.00
7052;BME280;3567;52.444;13.556;2023-01-27T07:46:23;101938.34;;;0.72;100.00
7052;BME280;3567;52.444;13.556;2023-01-27T07:48:48;101942.66;;;0.73;100.00
7052;BME280;3567;52.444;13.556;2023-01-27T07:51:14;101952.94;;;0.76;100.00
7052;BME280;3567;52.444;13.556;2023-01-27T07:53:40;101952.66;;;0.79;100.00
7052;BME280;3567;52.444;13.556;2023-01-27T07:56:06;101958.50;;;0.83;100.00
7052;BME280;3567;52.444;13.556;2023-01-27T07:58:38;101959.19;;;0.85;100.00
7052;BME280;3567;52.444;13.556;2023-01-27T08:01:09;101957.00;;;0.90;100.00
7052;BME280;3567;52.444;13.556;2023-01-27T08:03:35;101957.56;;;0.93;100.00
7052;BME280;3567;52.444;13.556;2023-01-27T08:06:09;101955.63;;;0.95;100.00
7052;BME280;3567;52.444;13.556;2023-01-27T08:08:35;101960.38;;;1.01;100.00
7052;BME280;3567;52.444;13.556;2023-01-27T08:11:02;101954.81;;;1.04;100.00
7052;BME280;3567;52.444;13.556;2023-01-27T08:13:29;101963.16;;;1.10;100.00
7052;BME280;3567;52.444;13.556;2023-01-27T08:15:58;101958.56;;;1.12;100.00
7052;BME280;3567;52.444;13.556;2023-01-27T08:18:25;101958.97;;;1.17;100.00
7052;BME280;3567;52.444;13.556;2023-01-27T08:20:52;101962.34;;;1.19;100.00
7052;BME280;3567;52.444;13.556;2023-01-27T08:23:19;101956.75;;;1.22;100.00
7052;BME280;3567;52.444;13.556;2023-01-27T08:25:56;101965.94;;;1.27;100.00
7052;BME280;3567;52.444;13.556;2023-01-27T08:28:23;101957.91;;;1.29;100.00
7052;BME280;3567;52.444;13.556;2023-01-27T08:30:49;101964.56;;;1.33;100.00
7052;BME280;3567;52.444;13.556;2023-01-27T08:33:19;101972.22;;;1.36;100.00
7052;BME280;3567;52.444;13.556;2023-01-27T08:35:45;101964.88;;;1.40;100.00
7052;BME280;3567;52.444;13.556;2023-01-27T08:38:12;101975.97;;;1.43;100.00
7052;BME280;3567;52.444;13.556;2023-01-27T08:40:38;101977.34;;;1.47;100.00
7052;BME280;3567;52.444;13.556;2023-01-27T08:43:05;101972.50;;;1.52;100.00
7052;BME280;3567;52.444;13.556;2023-01-27T08:45:30;101977.38;;;1.57;100.00
7052;BME280;3567;52.444;13.556;2023-01-27T08:47:55;101985.84;;;1.61;100.00
7052;BME280;3567;52.444;13.556;2023-01-27T08:50:21;101981.00;;;1.66;100.00
7052;BME280;3567;52.444;13.556;2023-01-27T08:52:46;101984.16;;;1.69;100.00
7052;BME280;3567;52.444;13.556;2023-01-27T08:55:11;101983.75;;;1.74;100.00
7052;BME280;3567;52.444;13.556;2023-01-27T08:57:37;101995.72;;;1.78;100.00
7052;BME280;3567;52.444;13.556;2023-01-27T09:00:08;101993.75;;;1.80;100.00
7052;BME280;3567;52.444;13.556;2023-01-27T09:02:35;101998.75;;;1.83;100.00
7052;BME280;3567;52.444;13.556;2023-01-27T09:05:00;101985.25;;;1.86;100.00
7052;BME280;3567;52.444;13.556;2023-01-27T09:07:25;101993.59;;;1.91;100.00
7052;BME280;3567;52.444;13.556;2023-01-27T09:09:51;101999.28;;;1.96;100.00
7052;BME280;3567;52.444;13.556;2023-01-27T09:12:16;101992.75;;;2.00;100.00
7052;BME280;3567;52.444;13.556;2023-01-27T09:14:42;101993.16;;;2.05;100.00
7052;BME280;3567;52.444;13.556;2023-01-27T09:17:07;101994.56;;;2.09;100.00
7052;BME280;3567;52.444;13.556;2023-01-27T09:19:32;101988.03;;;2.14;100.00
7052;BME280;3567;52.444;13.556;2023-01-27T09:21:58;102002.31;;;2.21;100.00
7052;BME280;3567;52.444;13.556;2023-01-27T09:24:23;102009.00;;;2.25;100.00
7052;BME280;3567;52.444;13.556;2023-01-27T09:26:49;102008.56;;;2.29;100.00
7052;BME280;3567;52.444;13.556;2023-01-27T09:29:14;102004.13;;;2.30;100.00
7052;BME280;3567;52.444;13.556;2023-01-27T09:31:40;102012.56;;;2.33;100.00
7052;BME280;3567;52.444;13.556;2023-01-27T09:34:05;102016.59;;;2.38;100.00
7052;BME280;3567;52.444;13.556;2023-01-27T09:36:32;102020.91;;;2.39;100.00
7052;BME280;3567;52.444;13.556;2023-01-27T09:39:05;102018.41;;;2.37;100.00
7052;BME280;3567;52.444;13.556;2023-01-27T09:44:42;102012.56;;;2.43;100.00
7052;BME280;3567;52.444;13.556;2023-01-27T09:47:27;102020.50;;;2.43;100.00
7052;BME280;3567;52.444;13.556;2023-01-27T09:55:28;102031.03;;;2.53;100.00
7052;BME280;3567;52.444;13.556;2023-01-27T10:12:01;102025.81;;;2.71;100.00
7052;BME280;3567;52.444;13.556;2023-01-27T10:14:49;102022.50;;;2.69;100.00
7052;BME280;3567;52.444;13.556;2023-01-27T10:20:51;102034.47;;;2.73;100.00
7052;BME280;3567;52.444;13.556;2023-01-27T10:29:12;102034.16;;;2.76;100.00
7052;BME280;3567;52.444;13.556;2023-01-27T10:34:32;102038.03;;;2.81;100.00
7052;BME280;3567;52.444;13.556;2023-01-27T10:39:41;102036.59;;;2.87;100.00
7052;BME280;3567;52.444;13.556;2023-01-27T10:50:50;102034.03;;;3.05;100.00
7052;BME280;3567;52.444;13.556;2023-01-27T10:53:24;102036.25;;;3.09;100.00
7052;BME280;3567;52.444;13.556;2023-01-27T10:58:33;102039.81;;;3.18;100.00
7052;BME280;3567;52.444;13.556;2023-01-27T11:01:03;102040.19;;;3.23;100.00
7052;BME280;3567;52.444;13.556;2023-01-27T11:03:38;102035.34;;;3.19;100.00
7052;BME280;3567;52.444;13.556;2023-01-27T11:06:11;102040.50;;;3.20;100.00
7052;BME280;3567;52.444;13.556;2023-01-27T11:08:39;102032.47;;;3.30;100.00
7052;BME280;3567;52.444;13.556;2023-01-27T11:11:08;102039.47;;;3.31;100.00
7052;BME280;3567;52.444;13.556;2023-01-27T11:14:15;102039.47;;;3.31;100.00
7052;BME280;3567;52.444;13.556;2023-01-27T11:16:45;102033.84;;;3.34;100.00
7052;BME280;3567;52.444;13.556;2023-01-27T11:19:23;102039.38;;;3.40;100.00
7052;BME280;3567;52.444;13.556;2023-01-27T11:21:50;102049.47;;;3.37;100.00
7052;BME280;3567;52.444;13.556;2023-01-27T11:24:27;102040.81;;;3.35;100.00
7052;BME280;3567;52.444;13.556;2023-01-27T11:27:48;102033.56;;;3.37;100.00
7052;BME280;3567;52.444;13.556;2023-01-27T11:30:27;102037.72;;;3.39;100.00
7052;BME280;3567;52.444;13.556;2023-01-27T11:33:28;102055.88;;;3.34;100.00
7052;BME280;3567;52.444;13.556;2023-01-27T11:35:55;102039.22;;;3.24;100.00
7052;BME280;3567;52.444;13.556;2023-01-27T11:38:21;102040.50;;;3.20;100.00
7052;BME280;3567;52.444;13.556;2023-01-27T11:40:47;102034.38;;;3.20;100.00
7052;BME280;3567;52.444;13.556;2023-01-27T11:43:18;102035.66;;;3.15;100.00
7052;BME280;3567;52.444;13.556;2023-01-27T11:45:45;102038.97;;;3.18;100.00
7052;BME280;3567;52.444;13.556;2023-01-27T11:48:12;102035.88;;;3.22;100.00
7052;BME280;3567;52.444;13.556;2023-01-27T11:50:40;102039.38;;;3.23;100.00
7052;BME280;3567;52.444;13.556;2023-01-27T11:55:50;102033.78;;;3.26;100.00
7052;BME280;3567;52.444;13.556;2023-01-27T11:58:26;102036.72;;;3.23;100.00
7052;BME280;3567;52.444;13.556;2023-01-27T12:00:59;102037.69;;;3.22;100.00
7052;BME280;3567;52.444;13.556;2023-01-27T12:06:01;102031.41;;;3.23;100.00
7052;BME280;3567;52.444;13.556;2023-01-27T12:08:40;102036.72;;;3.23;100.00
7052;BME280;3567;52.444;13.556;2023-01-27T12:11:24;102035.72;;;3.24;100.00
7052;BME280;3567;52.444;13.556;2023-01-27T12:13:53;102027.88;;;3.32;100.00
7052;BME280;3567;52.444;13.556;2023-01-27T12:16:19;102027.72;;;3.33;100.00
7052;BME280;3567;52.444;13.556;2023-01-27T12:19:01;102036.22;;;3.37;100.00
7052;BME280;3567;52.444;13.556;2023-01-27T12:21:43;102026.63;;;3.36;100.00
7052;BME280;3567;52.444;13.556;2023-01-27T12:24:40;102029.38;;;3.34;100.00
7052;BME280;3567;52.444;13.556;2023-01-27T12:27:05;102030.91;;;3.37;100.00
7052;BME280;3567;52.444;13.556;2023-01-27T12:29:43;102028.28;;;3.37;100.00
7052;BME280;3567;52.444;13.556;2023-01-27T12:33:00;102029.78;;;3.39;100.00
7052;BME280;3567;52.444;13.556;2023-01-27T12:35:01;102026.63;;;3.36;100.00
7052;BME280;3567;52.444;13.556;2023-01-27T12:37:32;102028.28;;;3.37;100.00
7052;BME280;3567;52.444;13.556;2023-01-27T12:40:02;102034.09;;;3.40;100.00
7052;BME280;3567;52.444;13.556;2023-01-27T12:42:43;102023.66;;;3.39;100.00
7052;BME280;3567;52.444;13.556;2023-01-27T12:45:25;102027.66;;;3.43;100.00
7052;BME280;3567;52.444;13.556;2023-01-27T12:53:20;102031.59;;;3.39;100.00
7052;BME280;3567;52.444;13.556;2023-01-27T12:56:15;102031.59;;;3.39;100.00
7052;BME280;3567;52.444;13.556;2023-01-27T13:03:48;102046.44;;;3.32;100.00
7052;BME280;3567;52.444;13.556;2023-01-27T13:06:16;102039.75;;;3.28;100.00
7052;BME280;3567;52.444;13.556;2023-01-27T13:08:43;102046.72;;;3.29;100.00
7052;BME280;3567;52.444;13.556;2023-01-27T13:11:11;102049.34;;;3.29;100.00
7052;BME280;3567;52.444;13.556;2023-01-27T13:13:46;102050.34;;;3.28;100.00
7052;BME280;3567;52.444;13.556;2023-01-27T13:16:27;102048.97;;;3.24;100.00
7052;BME280;3567;52.444;13.556;2023-01-27T13:18:55;102053.97;;;3.27;100.00
7052;BME280;3567;52.444;13.556;2023-01-27T13:21:24;102043.38;;;3.27;100.00
7052;BME280;3567;52.444;13.556;2023-01-27T13:23:52;102048.69;;;3.27;100.00
7052;BME280;3567;52.444;13.556;2023-01-27T13:26:23;102044.38;;;3.26;100.00
7052;BME280;3567;52.444;13.556;2023-01-27T13:29:09;102041.84;;;3.24;100.00
7052;BME280;3567;52.444;13.556;2023-01-27T13:31:55;102048.97;;;3.24;100.00
7052;BME280;3567;52.444;13.556;2023-01-27T13:34:29;102050.34;;;3.28;100.00
7052;BME280;3567;52.444;13.556;2023-01-27T13:37:03;102045.88;;;3.28;100.00
7052;BME280;3567;52.444;13.556;2023-01-27T13:40:11;102045.03;;;3.28;100.00
7052;BME280;3567;52.444;13.556;2023-01-27T13:42:52;102050.34;;;3.28;100.00
7052;BME280;3567;52.444;13.556;2023-01-27T13:48:12;102051.72;;;3.32;100.00
7052;BME280;3567;52.444;13.556;2023-01-27T13:50:42;102048.53;;;3.28;100.00
7052;BME280;3567;52.444;13.556;2023-01-27T13:53:15;102057.63;;;3.26;100.00
7052;BME280;3567;52.444;13.556;2023-01-27T13:58:53;102061.69;;;3.20;100.00
7052;BME280;3567;52.444;13.556;2023-01-27T14:01:30;102067.44;;;3.15;100.00
7052;BME280;3567;52.444;13.556;2023-01-27T14:12:54;102076.09;;;3.08;100.00
7052;BME280;3567;52.444;13.556;2023-01-27T14:15:39;102070.78;;;3.08;100.00
7052;BME280;3567;52.444;13.556;2023-01-27T14:18:14;102069.97;;;3.07;100.00
7052;BME280;3567;52.444;13.556;2023-01-27T14:25:54;102078.06;;;3.06;100.00
7052;BME280;3567;52.444;13.556;2023-01-27T14:28:51;102079.56;;;3.08;100.00
7052;BME280;3567;52.444;13.556;2023-01-27T14:31:24;102084.19;;;3.06;100.00
7052;BME280;3567;52.444;13.556;2023-01-27T14:36:33;102088.88;;;3.12;100.00
7052;BME280;3567;52.444;13.556;2023-01-27T14:39:16;102088.06;;;3.12;100.00
7052;BME280;3567;52.444;13.556;2023-01-27T14:41:53;102083.31;;;3.15;100.00
7052;BME280;3567;52.444;13.556;2023-01-27T14:44:51;102087.91;;;3.13;100.00
7052;BME280;3567;52.444;13.556;2023-01-27T14:47:59;102084.13;;;3.16;100.00
7052;BME280;3567;52.444;13.556;2023-01-27T14:50:40;102093.59;;;3.19;100.00